首页
METAR-TAF:

METAR-TAF

机场 :

埃克塞特國際機場

埃克塞特, 英格兰

纬度: 50-44N, 经度: 003-25W, 海拔: 30米

当前天气观测

该预报发布于44分钟前的13:50 UTC
风速4节,风向北转西北,在西转西北之间变化
温度 8°C
湿度 76%
气压 1047 hPa
能见度10公里或以上
1500米以下无云,无积雨云

METAR: EGTE 201350Z 33004KT 300V360 CAVOK 08/04 Q1047

时间: 14:34 (14:34 UTC)

预报

该预报发布于3小时和27分钟前的11:07 UTC
预报有效从20日的 12点(UTC)到 20日的 21点(UTC)
风速2节,风向多变
能见度10公里或以上
1500米以下无云,无积雨云
短暂存在
从 20日的 18点(UTC)到 20日的 21点(UTC)
能見度: 8000
几率 30% :
短暂存在
从 20日的 18点(UTC)到 20日的 21点(UTC)
能見度: 4000
轻雾

TAF: EGTE 201107Z 2012/2021 VRB02KT CAVOK TEMPO 2018/2021 8000 PROB30 TEMPO 2018/2021 4000 BR

超过4000个机场的气象观测和天气预报(METAR&TAF报告)。

可查询的气象台以黄色和红色小点在地图上表示。

将鼠标移到小点上方,可查看气象台名称。

然后点击查看天气观测和预报。

如需切换地图:点击带黑十字的绿色按钮放大地图;点击带横线的绿色按钮缩小地图;或者点击绿色箭头查看邻近地区的地图。


METAR-TAF: